sensor_id;sensor_type;location;lat;lon;timestamp;pressure;altitude;pressure_sealevel;temperature;humidity
29315;BME280;16320;53.954;9.506;2022-11-04T00:01:22;99799.66;;;10.89;100.00
29315;BME280;16320;53.954;9.506;2022-11-04T00:04:27;99771.50;;;10.91;100.00
29315;BME280;16320;53.954;9.506;2022-11-04T00:07:32;99780.75;;;10.97;100.00
29315;BME280;16320;53.954;9.506;2022-11-04T00:10:59;99788.44;;;10.87;100.00
29315;BME280;16320;53.954;9.506;2022-11-04T00:14:22;99798.84;;;10.89;100.00
29315;BME280;16320;53.954;9.506;2022-11-04T00:17:27;99795.44;;;10.87;100.00
29315;BME280;16320;53.954;9.506;2022-11-04T00:20:31;99798.16;;;10.85;100.00
29315;BME280;16320;53.954;9.506;2022-11-04T00:23:54;99795.44;;;10.87;100.00
29315;BME280;16320;53.954;9.506;2022-11-04T00:27:19;99797.34;;;10.85;100.00
29315;BME280;16320;53.954;9.506;2022-11-04T00:30:43;99803.53;;;10.84;100.00
29315;BME280;16320;53.954;9.506;2022-11-04T00:33:49;99791.88;;;10.88;100.00
29315;BME280;16320;53.954;9.506;2022-11-04T00:36:54;99799.03;;;10.86;100.00
29315;BME280;16320;53.954;9.506;2022-11-04T00:39:59;99768.75;;;10.93;100.00
29315;BME280;16320;53.954;9.506;2022-11-04T00:43:03;99762.06;;;10.89;100.00
29315;BME280;16320;53.954;9.506;2022-11-04T00:46:07;99770.44;;;10.94;100.00
29315;BME280;16320;53.954;9.506;2022-11-04T00:49:12;99765.19;;;10.94;100.00
29315;BME280;16320;53.954;9.506;2022-11-04T00:52:16;99746.91;;;10.92;100.00
29315;BME280;16320;53.954;9.506;2022-11-04T00:55:21;99735.78;;;10.89;100.00
29315;BME280;16320;53.954;9.506;2022-11-04T00:58:28;99755.00;;;10.89;100.00
29315;BME280;16320;53.954;9.506;2022-11-04T01:01:32;99756.81;;;10.89;100.00
29315;BME280;16320;53.954;9.506;2022-11-04T01:04:36;99756.81;;;10.89;100.00
29315;BME280;16320;53.954;9.506;2022-11-04T01:07:41;99768.44;;;10.85;100.00
29315;BME280;16320;53.954;9.506;2022-11-04T01:10:46;99774.44;;;10.87;100.00
29315;BME280;16320;53.954;9.506;2022-11-04T01:13:51;99760.88;;;10.93;100.00
29315;BME280;16320;53.954;9.506;2022-11-04T01:16:55;99760.97;;;10.91;100.00
29315;BME280;16320;53.954;9.506;2022-11-04T01:20:00;99764.22;;;10.95;100.00
29315;BME280;16320;53.954;9.506;2022-11-04T01:23:04;99765.63;;;10.88;100.00
29315;BME280;16320;53.954;9.506;2022-11-04T01:26:13;99781.78;;;10.81;100.00
29315;BME280;16320;53.954;9.506;2022-11-04T01:29:18;99779.69;;;10.87;100.00
29315;BME280;16320;53.954;9.506;2022-11-04T01:32:22;99773.91;;;10.81;100.00
29315;BME280;16320;53.954;9.506;2022-11-04T01:35:26;99777.28;;;10.71;100.00
29315;BME280;16320;53.954;9.506;2022-11-04T01:38:31;99786.38;;;10.65;100.00
29315;BME280;16320;53.954;9.506;2022-11-04T01:41:35;99789.13;;;10.63;100.00
29315;BME280;16320;53.954;9.506;2022-11-04T01:44:54;99799.00;;;10.60;100.00
29315;BME280;16320;53.954;9.506;2022-11-04T01:48:04;99820.88;;;10.46;100.00
29315;BME280;16320;53.954;9.506;2022-11-04T01:51:12;99814.19;;;10.42;100.00
29315;BME280;16320;53.954;9.506;2022-11-04T01:54:18;99820.34;;;10.41;100.00
29315;BME280;16320;53.954;9.506;2022-11-04T01:57:33;99824.97;;;10.37;100.00
29315;BME280;16320;53.954;9.506;2022-11-04T02:00:41;99830.84;;;10.41;100.00
29315;BME280;16320;53.954;9.506;2022-11-04T02:03:52;99820.56;;;10.38;100.00
29315;BME280;16320;53.954;9.506;2022-11-04T02:07:03;99825.16;;;10.34;100.00
29315;BME280;16320;53.954;9.506;2022-11-04T02:10:11;99825.34;;;10.31;100.00
29315;BME280;16320;53.954;9.506;2022-11-04T02:13:15;99831.75;;;10.27;100.00
29315;BME280;16320;53.954;9.506;2022-11-04T02:16:37;99831.75;;;10.27;100.00
29315;BME280;16320;53.954;9.506;2022-11-04T02:27:06;99816.56;;;10.32;100.00
29315;BME280;16320;53.954;9.506;2022-11-04T02:30:17;99823.47;;;10.33;100.00
29315;BME280;16320;53.954;9.506;2022-11-04T02:33:30;99836.97;;;10.41;100.00
29315;BME280;16320;53.954;9.506;2022-11-04T02:36:45;99836.09;;;10.41;100.00
29315;BME280;16320;53.954;9.506;2022-11-04T02:40:23;99812.38;;;10.42;100.00
29315;BME280;16320;53.954;9.506;2022-11-04T02:43:51;99796.22;;;10.49;100.00
29315;BME280;16320;53.954;9.506;2022-11-04T02:47:04;99804.84;;;10.51;100.00
29315;BME280;16320;53.954;9.506;2022-11-04T02:50:28;99796.22;;;10.49;100.00
29315;BME280;16320;53.954;9.506;2022-11-04T02:53:49;99800.47;;;10.51;100.00
29315;BME280;16320;53.954;9.506;2022-11-04T02:56:59;99803.50;;;10.58;100.00
29315;BME280;16320;53.954;9.506;2022-11-04T03:00:09;99810.00;;;10.52;100.00
29315;BME280;16320;53.954;9.506;2022-11-04T03:03:27;99808.88;;;10.56;100.00
29315;BME280;16320;53.954;9.506;2022-11-04T03:06:35;99810.44;;;10.59;100.00
29315;BME280;16320;53.954;9.506;2022-11-04T03:09:47;99804.44;;;10.57;100.00
29315;BME280;16320;53.954;9.506;2022-11-04T03:13:11;99808.66;;;10.59;100.00
29315;BME280;16320;53.954;9.506;2022-11-04T03:16:22;99812.13;;;10.60;100.00
29315;BME280;16320;53.954;9.506;2022-11-04T03:19:58;99796.28;;;10.61;100.00
29315;BME280;16320;53.954;9.506;2022-11-04T03:23:03;99793.53;;;10.63;100.00
29315;BME280;16320;53.954;9.506;2022-11-04T03:26:19;99774.00;;;10.67;100.00
29315;BME280;16320;53.954;9.506;2022-11-04T03:29:43;99776.72;;;10.66;100.00
29315;BME280;16320;53.954;9.506;2022-11-04T03:36:18;99775.69;;;10.68;100.00
29315;BME280;16320;53.954;9.506;2022-11-04T03:39:25;99780.31;;;10.77;100.00
29315;BME280;16320;53.954;9.506;2022-11-04T03:42:31;99779.47;;;10.77;100.00
29315;BME280;16320;53.954;9.506;2022-11-04T03:45:38;99792.28;;;10.81;100.00
29315;BME280;16320;53.954;9.506;2022-11-04T03:48:44;99797.75;;;10.78;100.00
29315;BME280;16320;53.954;9.506;2022-11-04T03:51:51;99793.03;;;10.84;100.00
29315;BME280;16320;53.954;9.506;2022-11-04T03:54:55;99798.84;;;10.89;100.00
29315;BME280;16320;53.954;9.506;2022-11-04T03:58:26;99788.84;;;10.94;100.00
29315;BME280;16320;53.954;9.506;2022-11-04T04:02:19;99771.38;;;10.93;100.00
29315;BME280;16320;53.954;9.506;2022-11-04T04:08:52;99768.56;;;10.96;100.00
29315;BME280;16320;53.954;9.506;2022-11-04T04:12:35;99767.50;;;10.98;100.00
29315;BME280;16320;53.954;9.506;2022-11-04T04:19:02;99760.88;;;11.06;100.00
29315;BME280;16320;53.954;9.506;2022-11-04T04:22:16;99753.41;;;11.12;100.00
29315;BME280;16320;53.954;9.506;2022-11-04T04:25:25;99755.31;;;11.10;100.00
29315;BME280;16320;53.954;9.506;2022-11-04T04:28:50;99735.75;;;11.14;100.00
29315;BME280;16320;53.954;9.506;2022-11-04T04:31:56;99744.16;;;11.20;100.00
29315;BME280;16320;53.954;9.506;2022-11-04T04:35:06;99752.78;;;11.22;100.00
29315;BME280;16320;53.954;9.506;2022-11-04T04:38:31;99757.59;;;11.28;100.00
29315;BME280;16320;53.954;9.506;2022-11-04T04:41:57;99754.66;;;11.32;100.00
29315;BME280;16320;53.954;9.506;2022-11-04T04:45:33;99755.59;;;11.31;100.00
29315;BME280;16320;53.954;9.506;2022-11-04T04:48:39;99762.88;;;11.28;100.00
29315;BME280;16320;53.954;9.506;2022-11-04T04:51:45;99770.25;;;11.23;100.00
29315;BME280;16320;53.954;9.506;2022-11-04T04:54:50;99786.63;;;11.13;100.00
29315;BME280;16320;53.954;9.506;2022-11-04T04:57:54;99798.19;;;10.98;100.00
29315;BME280;16320;53.954;9.506;2022-11-04T05:00:58;99809.75;;;10.83;100.00
29315;BME280;16320;53.954;9.506;2022-11-04T05:04:03;99818.97;;;10.75;100.00
29315;BME280;16320;53.954;9.506;2022-11-04T05:07:07;99824.44;;;10.72;100.00
29315;BME280;16320;53.954;9.506;2022-11-04T05:10:14;99835.88;;;10.71;100.00
29315;BME280;16320;53.954;9.506;2022-11-04T05:13:19;99831.75;;;10.67;100.00
29315;BME280;16320;53.954;9.506;2022-11-04T05:16:29;99843.13;;;10.68;100.00
29315;BME280;16320;53.954;9.506;2022-11-04T05:19:34;99847.53;;;10.67;100.00
29315;BME280;16320;53.954;9.506;2022-11-04T05:22:38;99844.16;;;10.65;100.00
29315;BME280;16320;53.954;9.506;2022-11-04T05:25:43;99846.06;;;10.63;100.00
29315;BME280;16320;53.954;9.506;2022-11-04T05:28:49;99839.84;;;10.64;100.00
29315;BME280;16320;53.954;9.506;2022-11-04T05:31:53;99848.78;;;10.61;100.00
29315;BME280;16320;53.954;9.506;2022-11-04T05:34:58;99842.69;;;10.61;100.00
29315;BME280;16320;53.954;9.506;2022-11-04T05:38:02;99839.31;;;10.59;100.00
29315;BME280;16320;53.954;9.506;2022-11-04T05:41:10;99843.09;;;10.55;100.00
29315;BME280;16320;53.954;9.506;2022-11-04T05:44:15;99848.25;;;10.56;100.00
29315;BME280;16320;53.954;9.506;2022-11-04T05:47:19;99843.09;;;10.55;100.00
29315;BME280;16320;53.954;9.506;2022-11-04T05:50:23;99844.75;;;10.56;100.00
29315;BME280;16320;53.954;9.506;2022-11-04T05:53:27;99854.44;;;10.55;100.00
29315;BME280;16320;53.954;9.506;2022-11-04T05:56:32;99856.97;;;10.57;100.00
29315;BME280;16320;53.954;9.506;2022-11-04T05:59:36;99856.97;;;10.57;100.00
29315;BME280;16320;53.954;9.506;2022-11-04T06:02:41;99864.63;;;10.60;100.00
29315;BME280;16320;53.954;9.506;2022-11-04T06:05:45;99881.31;;;10.59;100.00
29315;BME280;16320;53.954;9.506;2022-11-04T06:08:50;99883.00;;;10.60;100.00
29315;BME280;16320;53.954;9.506;2022-11-04T06:11:55;99884.72;;;10.61;100.00
29315;BME280;16320;53.954;9.506;2022-11-04T06:14:59;99886.38;;;10.62;100.00
29315;BME280;16320;53.954;9.506;2022-11-04T06:18:03;99881.13;;;10.62;100.00
29315;BME280;16320;53.954;9.506;2022-11-04T06:24:19;99898.97;;;10.57;100.00
29315;BME280;16320;53.954;9.506;2022-11-04T06:27:23;99892.88;;;10.56;100.00
29315;BME280;16320;53.954;9.506;2022-11-04T06:30:28;99907.78;;;10.56;100.00
29315;BME280;16320;53.954;9.506;2022-11-04T06:33:32;99903.47;;;10.55;100.00
29315;BME280;16320;53.954;9.506;2022-11-04T06:36:40;99921.88;;;10.55;100.00
29315;BME280;16320;53.954;9.506;2022-11-04T06:39:44;99927.94;;;10.55;100.00
29315;BME280;16320;53.954;9.506;2022-11-04T06:42:48;99927.75;;;10.58;100.00
29315;BME280;16320;53.954;9.506;2022-11-04T06:45:59;99931.22;;;10.59;100.00
29315;BME280;16320;53.954;9.506;2022-11-04T06:49:05;99932.91;;;10.60;100.00
29315;BME280;16320;53.954;9.506;2022-11-04T06:52:10;99937.22;;;10.61;100.00
29315;BME280;16320;53.954;9.506;2022-11-04T06:55:14;99941.53;;;10.62;100.00
29315;BME280;16320;53.954;9.506;2022-11-04T06:58:19;99944.16;;;10.62;100.00
29315;BME280;16320;53.954;9.506;2022-11-04T07:01:27;99946.78;;;10.62;100.00
29315;BME280;16320;53.954;9.506;2022-11-04T07:04:31;99952.22;;;10.59;100.00
29315;BME280;16320;53.954;9.506;2022-11-04T07:07:37;99944.34;;;10.59;100.00
29315;BME280;16320;53.954;9.506;2022-11-04T07:10:43;99967.03;;;10.60;100.00
29315;BME280;16320;53.954;9.506;2022-11-04T07:13:51;99968.16;;;10.56;100.00
29315;BME280;16320;53.954;9.506;2022-11-04T07:16:56;99979.44;;;10.58;100.00
29315;BME280;16320;53.954;9.506;2022-11-04T07:20:01;99984.69;;;10.58;100.00
29315;BME280;16320;53.954;9.506;2022-11-04T07:23:05;99996.94;;;10.57;100.00
29315;BME280;16320;53.954;9.506;2022-11-04T07:26:10;99991.78;;;10.56;100.00
29315;BME280;16320;53.954;9.506;2022-11-04T07:29:14;100003.16;;;10.56;100.00
29315;BME280;16320;53.954;9.506;2022-11-04T07:32:19;100001.38;;;10.57;100.00
29315;BME280;16320;53.954;9.506;2022-11-04T07:35:23;100009.44;;;10.54;100.00
29315;BME280;16320;53.954;9.506;2022-11-04T07:38:28;100023.41;;;10.54;100.00
29315;BME280;16320;53.954;9.506;2022-11-04T07:41:33;100040.75;;;10.57;100.00
29315;BME280;16320;53.954;9.506;2022-11-04T07:44:37;100044.31;;;10.56;100.00
29315;BME280;16320;53.954;9.506;2022-11-04T07:47:41;100059.22;;;10.55;100.00
29315;BME280;16320;53.954;9.506;2022-11-04T07:50:46;100044.53;;;10.53;100.00
29315;BME280;16320;53.954;9.506;2022-11-04T07:53:50;100049.00;;;10.51;100.00
29315;BME280;16320;53.954;9.506;2022-11-04T07:56:55;100059.59;;;10.49;100.00
29315;BME280;16320;53.954;9.506;2022-11-04T08:00:02;100066.00;;;10.45;100.00
29315;BME280;16320;53.954;9.506;2022-11-04T08:03:06;100071.34;;;10.43;100.00
29315;BME280;16320;53.954;9.506;2022-11-04T08:06:15;100075.00;;;10.41;100.00
29315;BME280;16320;53.954;9.506;2022-11-04T08:09:20;100081.19;;;10.40;100.00
29315;BME280;16320;53.954;9.506;2022-11-04T08:12:25;100081.19;;;10.40;100.00
29315;BME280;16320;53.954;9.506;2022-11-04T08:15:31;100094.22;;;10.41;100.00
29315;BME280;16320;53.954;9.506;2022-11-04T08:18:35;100087.28;;;10.40;100.00
29315;BME280;16320;53.954;9.506;2022-11-04T08:21:40;100076.78;;;10.40;100.00
29315;BME280;16320;53.954;9.506;2022-11-04T08:24:45;100080.34;;;10.39;100.00
29315;BME280;16320;53.954;9.506;2022-11-04T08:27:52;100087.28;;;10.40;100.00
29315;BME280;16320;53.954;9.506;2022-11-04T08:31:08;100088.97;;;10.41;100.00
29315;BME280;16320;53.954;9.506;2022-11-04T08:34:14;100087.94;;;10.44;100.00
29315;BME280;16320;53.954;9.506;2022-11-04T08:37:20;100090.47;;;10.46;100.00
29315;BME280;16320;53.954;9.506;2022-11-04T08:40:24;100106.03;;;10.49;100.00
29315;BME280;16320;53.954;9.506;2022-11-04T08:43:29;100107.91;;;10.47;100.00
29315;BME280;16320;53.954;9.506;2022-11-04T08:46:37;100108.84;;;10.46;100.00
29315;BME280;16320;53.954;9.506;2022-11-04T08:49:42;100116.72;;;10.46;100.00
29315;BME280;16320;53.954;9.506;2022-11-04T08:52:47;100120.09;;;10.48;100.00
29315;BME280;16320;53.954;9.506;2022-11-04T08:55:52;100117.19;;;10.52;100.00
29315;BME280;16320;53.954;9.506;2022-11-04T08:58:58;100117.84;;;10.56;100.00
29315;BME280;16320;53.954;9.506;2022-11-04T09:02:03;100107.34;;;10.56;100.00
29315;BME280;16320;53.954;9.506;2022-11-04T09:05:09;100115.13;;;10.57;100.00
29315;BME280;16320;53.954;9.506;2022-11-04T09:08:15;100121.06;;;10.61;100.00
29315;BME280;16320;53.954;9.506;2022-11-04T09:11:20;100133.03;;;10.65;100.00
29315;BME280;16320;53.954;9.506;2022-11-04T09:14:25;100143.34;;;10.68;100.00
29315;BME280;16320;53.954;9.506;2022-11-04T09:17:30;100146.72;;;10.70;100.00
29315;BME280;16320;53.954;9.506;2022-11-04T09:20:35;100152.63;;;10.74;100.00
29315;BME280;16320;53.954;9.506;2022-11-04T09:23:45;100159.59;;;10.75;100.00
29315;BME280;16320;53.954;9.506;2022-11-04T09:26:50;100162.84;;;10.78;100.00
29315;BME280;16320;53.954;9.506;2022-11-04T09:29:54;100161.94;;;10.79;100.00
29315;BME280;16320;53.954;9.506;2022-11-04T09:32:59;100167.00;;;10.83;100.00
29315;BME280;16320;53.954;9.506;2022-11-04T09:36:04;100170.38;;;10.85;100.00
29315;BME280;16320;53.954;9.506;2022-11-04T09:39:09;100173.38;;;10.93;100.00
29315;BME280;16320;53.954;9.506;2022-11-04T09:45:50;100173.53;;;11.04;100.00
29315;BME280;16320;53.954;9.506;2022-11-04T09:48:55;100186.50;;;11.07;100.00
29315;BME280;16320;53.954;9.506;2022-11-04T09:52:30;100175.78;;;11.10;100.00
29315;BME280;16320;53.954;9.506;2022-11-04T09:55:54;100177.50;;;11.11;100.00
29315;BME280;16320;53.954;9.506;2022-11-04T09:59:04;100182.34;;;11.17;100.00
29315;BME280;16320;53.954;9.506;2022-11-04T10:06:29;100189.25;;;11.47;100.00
29315;BME280;16320;53.954;9.506;2022-11-04T10:13:30;100186.31;;;11.52;100.00
29315;BME280;16320;53.954;9.506;2022-11-04T10:29:59;100213.22;;;11.28;100.00
29315;BME280;16320;53.954;9.506;2022-11-04T10:36:31;100222.63;;;11.60;100.00
29315;BME280;16320;53.954;9.506;2022-11-04T10:39:43;100221.69;;;11.61;100.00
29315;BME280;16320;53.954;9.506;2022-11-04T10:42:49;100214.53;;;11.63;100.00
29315;BME280;16320;53.954;9.506;2022-11-04T10:53:33;100223.69;;;11.84;100.00
29315;BME280;16320;53.954;9.506;2022-11-04T10:56:48;100216.75;;;11.83;100.00
29315;BME280;16320;53.954;9.506;2022-11-04T11:00:00;100226.19;;;11.86;100.00
29315;BME280;16320;53.954;9.506;2022-11-04T11:03:37;100222.19;;;11.80;100.00
29315;BME280;16320;53.954;9.506;2022-11-04T11:06:41;100230.09;;;11.80;100.00
29315;BME280;16320;53.954;9.506;2022-11-04T11:09:53;100232.91;;;11.92;100.00
29315;BME280;16320;53.954;9.506;2022-11-04T11:13:08;100238.75;;;12.09;100.00
29315;BME280;16320;53.954;9.506;2022-11-04T11:16:28;100239.19;;;12.16;100.00
29315;BME280;16320;53.954;9.506;2022-11-04T11:19:59;100239.47;;;12.12;100.00
29315;BME280;16320;53.954;9.506;2022-11-04T11:23:47;100236.16;;;11.95;100.00
29315;BME280;16320;53.954;9.506;2022-11-04T11:26:57;100238.63;;;11.84;100.00
29315;BME280;16320;53.954;9.506;2022-11-04T11:30:03;100254.50;;;11.82;100.00
29315;BME280;16320;53.954;9.506;2022-11-04T11:33:29;100266.53;;;11.86;100.00
29315;BME280;16320;53.954;9.506;2022-11-04T11:36:36;100262.31;;;11.84;100.00
29315;BME280;16320;53.954;9.506;2022-11-04T11:39:42;100273.88;;;11.81;100.00
29315;BME280;16320;53.954;9.506;2022-11-04T11:42:47;100275.75;;;11.79;100.00
29315;BME280;16320;53.954;9.506;2022-11-04T11:45:52;100278.00;;;11.85;100.00
29315;BME280;16320;53.954;9.506;2022-11-04T11:49:01;100283.41;;;12.11;100.00
29315;BME280;16320;53.954;9.506;2022-11-04T11:55:36;100271.84;;;12.26;100.00
29315;BME280;16320;53.954;9.506;2022-11-04T11:59:07;100249.63;;;12.18;100.00
29315;BME280;16320;53.954;9.506;2022-11-04T12:13:25;100261.91;;;12.44;100.00
29315;BME280;16320;53.954;9.506;2022-11-04T12:18:07;100267.16;;;12.57;100.00
29315;BME280;16320;53.954;9.506;2022-11-04T12:21:39;100259.28;;;12.57;100.00
29315;BME280;16320;53.954;9.506;2022-11-04T12:25:11;100265.19;;;12.61;100.00
29315;BME280;16320;53.954;9.506;2022-11-04T12:28:52;100246.84;;;12.59;100.00
29315;BME280;16320;53.954;9.506;2022-11-04T12:46:27;100263.41;;;12.74;100.00
29315;BME280;16320;53.954;9.506;2022-11-04T12:49:50;100256.66;;;12.70;100.00
29315;BME280;16320;53.954;9.506;2022-11-04T12:56:11;100262.66;;;12.59;100.00
29315;BME280;16320;53.954;9.506;2022-11-04T13:00:04;100276.56;;;12.61;100.00
29315;BME280;16320;53.954;9.506;2022-11-04T13:03:26;100284.16;;;12.53;100.00
29315;BME280;16320;53.954;9.506;2022-11-04T13:06:44;100280.22;;;12.46;100.00
29315;BME280;16320;53.954;9.506;2022-11-04T13:09:58;100284.75;;;12.44;100.00
29315;BME280;16320;53.954;9.506;2022-11-04T13:13:07;100289.09;;;12.45;100.00
29315;BME280;16320;53.954;9.506;2022-11-04T13:16:14;100290.03;;;12.44;100.00
29315;BME280;16320;53.954;9.506;2022-11-04T13:19:36;100308.84;;;12.38;100.00
29315;BME280;16320;53.954;9.506;2022-11-04T13:22:50;100315.88;;;12.24;100.00
29315;BME280;16320;53.954;9.506;2022-11-04T13:25:56;100350.34;;;12.07;100.00
29315;BME280;16320;53.954;9.506;2022-11-04T13:29:13;100360.31;;;11.87;100.00
29315;BME280;16320;53.954;9.506;2022-11-04T13:32:47;100391.16;;;11.85;100.00
29315;BME280;16320;53.954;9.506;2022-11-04T13:39:29;100394.94;;;11.67;100.00
29315;BME280;16320;53.954;9.506;2022-11-04T13:46:47;100397.00;;;11.62;100.00
29315;BME280;16320;53.954;9.506;2022-11-04T13:49:54;100408.19;;;11.65;100.00
29315;BME280;16320;53.954;9.506;2022-11-04T13:52:59;100416.72;;;11.69;100.00
29315;BME280;16320;53.954;9.506;2022-11-04T13:56:04;100411.47;;;11.69;100.00
29315;BME280;16320;53.954;9.506;2022-11-04T13:59:30;100404.69;;;11.65;100.00
29315;BME280;16320;53.954;9.506;2022-11-04T14:02:49;100398.69;;;11.63;100.00
29315;BME280;16320;53.954;9.506;2022-11-04T14:06:06;100394.56;;;11.59;100.00
29315;BME280;16320;53.954;9.506;2022-11-04T14:12:40;100406.75;;;11.60;100.00
29315;BME280;16320;53.954;9.506;2022-11-04T14:19:46;100420.78;;;11.60;100.00
29315;BME280;16320;53.954;9.506;2022-11-04T14:22:54;100409.19;;;11.63;100.00
29315;BME280;16320;53.954;9.506;2022-11-04T14:26:03;100413.53;;;11.64;100.00
29315;BME280;16320;53.954;9.506;2022-11-04T14:29:18;100423.22;;;11.63;100.00
29315;BME280;16320;53.954;9.506;2022-11-04T14:32:35;100419.72;;;11.63;100.00
29315;BME280;16320;53.954;9.506;2022-11-04T14:35:42;100418.97;;;11.61;100.00
29315;BME280;16320;53.954;9.506;2022-11-04T14:42:52;100444.53;;;11.59;100.00
29315;BME280;16320;53.954;9.506;2022-11-04T14:45:59;100463.88;;;11.58;100.00
29315;BME280;16320;53.954;9.506;2022-11-04T14:49:04;100483.03;;;11.60;100.00
29315;BME280;16320;53.954;9.506;2022-11-04T14:55:35;100507.94;;;11.54;100.00
29315;BME280;16320;53.954;9.506;2022-11-04T15:01:59;100521.09;;;11.54;100.00
29315;BME280;16320;53.954;9.506;2022-11-04T15:05:04;100514.97;;;11.53;100.00
29315;BME280;16320;53.954;9.506;2022-11-04T15:08:35;100516.84;;;11.51;100.00
29315;BME280;16320;53.954;9.506;2022-11-04T15:11:41;100515.44;;;11.46;100.00
29315;BME280;16320;53.954;9.506;2022-11-04T15:15:34;100519.44;;;11.37;100.00
29315;BME280;16320;53.954;9.506;2022-11-04T15:18:40;100530.13;;;11.34;100.00
29315;BME280;16320;53.954;9.506;2022-11-04T15:21:47;100540.06;;;11.29;100.00
29315;BME280;16320;53.954;9.506;2022-11-04T15:24:52;100544.75;;;11.24;100.00
29315;BME280;16320;53.954;9.506;2022-11-04T15:27:57;100546.78;;;11.18;100.00
29315;BME280;16320;53.954;9.506;2022-11-04T15:31:18;100559.25;;;11.15;100.00
29315;BME280;16320;53.954;9.506;2022-11-04T15:34:25;100563.06;;;11.09;100.00
29315;BME280;16320;53.954;9.506;2022-11-04T15:37:30;100558.19;;;11.03;100.00
29315;BME280;16320;53.954;9.506;2022-11-04T15:40:35;100551.56;;;10.96;100.00
29315;BME280;16320;53.954;9.506;2022-11-04T15:43:43;100552.56;;;10.93;100.00
29315;BME280;16320;53.954;9.506;2022-11-04T15:46:59;100551.72;;;10.93;100.00
29315;BME280;16320;53.954;9.506;2022-11-04T15:50:21;100555.31;;;10.92;100.00
29315;BME280;16320;53.954;9.506;2022-11-04T15:53:26;100555.66;;;10.86;100.00
29315;BME280;16320;53.954;9.506;2022-11-04T15:56:42;100571.31;;;10.71;100.00
29315;BME280;16320;53.954;9.506;2022-11-04T15:59:55;100595.97;;;10.53;100.00
29315;BME280;16320;53.954;9.506;2022-11-04T16:03:02;100612.34;;;10.40;100.00
29315;BME280;16320;53.954;9.506;2022-11-04T16:06:07;100621.63;;;10.30;100.00
29315;BME280;16320;53.954;9.506;2022-11-04T16:09:21;100634.97;;;10.25;100.00
29315;BME280;16320;53.954;9.506;2022-11-04T16:12:33;100637.84;;;10.21;100.00
29315;BME280;16320;53.954;9.506;2022-11-04T16:15:45;100630.34;;;10.13;100.00
29315;BME280;16320;53.954;9.506;2022-11-04T16:18:55;100649.03;;;10.07;100.00
29315;BME280;16320;53.954;9.506;2022-11-04T16:22:06;100654.69;;;9.99;100.00
29315;BME280;16320;53.954;9.506;2022-11-04T16:25:20;100662.63;;;9.98;100.00
29315;BME280;16320;53.954;9.506;2022-11-04T16:28:35;100669.03;;;9.92;100.00
29315;BME280;16320;53.954;9.506;2022-11-04T16:31:39;100668.25;;;9.90;100.00
29315;BME280;16320;53.954;9.506;2022-11-04T16:34:45;100671.88;;;9.87;100.00
29315;BME280;16320;53.954;9.506;2022-11-04T16:37:52;100680.69;;;9.86;100.00
29315;BME280;16320;53.954;9.506;2022-11-04T16:40:57;100685.22;;;9.83;100.00
29315;BME280;16320;53.954;9.506;2022-11-04T16:44:04;100697.56;;;9.81;100.00
29315;BME280;16320;53.954;9.506;2022-11-04T16:47:09;100694.16;;;9.79;100.00
29315;BME280;16320;53.954;9.506;2022-11-04T16:50:15;100701.28;;;9.77;100.00
29315;BME280;16320;53.954;9.506;2022-11-04T16:53:21;100708.34;;;9.75;100.00
29315;BME280;16320;53.954;9.506;2022-11-04T16:56:26;100710.19;;;9.73;100.00
29315;BME280;16320;53.954;9.506;2022-11-04T16:59:31;100710.34;;;9.69;100.00
29315;BME280;16320;53.954;9.506;2022-11-04T17:02:35;100707.72;;;9.69;100.00
29315;BME280;16320;53.954;9.506;2022-11-04T17:05:41;100711.28;;;9.68;100.00
29315;BME280;16320;53.954;9.506;2022-11-04T17:08:46;100715.72;;;9.66;100.00
29315;BME280;16320;53.954;9.506;2022-11-04T17:11:51;100715.72;;;9.66;100.00
29315;BME280;16320;53.954;9.506;2022-11-04T17:14:55;100721.84;;;9.67;100.00
29315;BME280;16320;53.954;9.506;2022-11-04T17:17:59;100719.38;;;9.64;100.00
29315;BME280;16320;53.954;9.506;2022-11-04T17:21:11;100720.44;;;9.60;100.00
29315;BME280;16320;53.954;9.506;2022-11-04T17:24:16;100716.25;;;9.56;100.00
29315;BME280;16320;53.954;9.506;2022-11-04T17:27:21;100718.97;;;9.54;100.00
29315;BME280;16320;53.954;9.506;2022-11-04T17:30:25;100724.13;;;9.56;100.00
29315;BME280;16320;53.954;9.506;2022-11-04T17:33:29;100725.75;;;9.58;100.00
29315;BME280;16320;53.954;9.506;2022-11-04T17:36:34;100737.72;;;9.64;100.00
29315;BME280;16320;53.954;9.506;2022-11-04T17:39:39;100740.28;;;9.65;100.00
29315;BME280;16320;53.954;9.506;2022-11-04T17:42:44;100746.38;;;9.66;100.00
29315;BME280;16320;53.954;9.506;2022-11-04T17:46:16;100749.06;;;9.64;100.00
29315;BME280;16320;53.954;9.506;2022-11-04T17:49:39;100747.19;;;9.66;100.00
29315;BME280;16320;53.954;9.506;2022-11-04T17:52:45;100752.53;;;9.65;100.00
29315;BME280;16320;53.954;9.506;2022-11-04T17:55:53;100748.22;;;9.64;100.00
29315;BME280;16320;53.954;9.506;2022-11-04T17:58:59;100742.09;;;9.63;100.00
29315;BME280;16320;53.954;9.506;2022-11-04T18:02:10;100745.59;;;9.64;100.00
29315;BME280;16320;53.954;9.506;2022-11-04T18:05:15;100752.59;;;9.63;100.00
29315;BME280;16320;53.954;9.506;2022-11-04T18:08:19;100754.16;;;9.67;100.00
29315;BME280;16320;53.954;9.506;2022-11-04T18:11:26;100753.25;;;9.68;100.00
29315;BME280;16320;53.954;9.506;2022-11-04T18:14:51;100752.31;;;9.69;100.00
29315;BME280;16320;53.954;9.506;2022-11-04T18:17:56;100757.63;;;9.68;100.00
29315;BME280;16320;53.954;9.506;2022-11-04T18:21:04;100757.84;;;9.63;100.00
29315;BME280;16320;53.954;9.506;2022-11-04T18:24:10;100757.84;;;9.63;100.00